Time;durP1;ratioP1;P1;durP2;ratioP2;P2;SDS_P1;SDS_P2;PMS_P1;PMS_P2;Temp;Humidity;BMP_temperature;BMP_pressure;BME280_temperature;BME280_humidity;BME280_pressure;Samples;Min_cycle;Max_cycle;Signal;HPM_P1;HPM_P2
2021/07/08 00:00:07;;;;;;;3.85;1.80;;;;;;;;;;342372;28;46195;-69
2021/07/08 00:00:22;;;;;;;4.82;1.75;;;;;;;;;;339332;28;136793;-69
2021/07/08 00:00:36;;;;;;;4.65;1.58;;;;;;;;;;340597;28;93050;-70
2021/07/08 00:00:49;;;;;;;4.10;1.50;;;;;;;;;;340820;28;91943;-70
2021/07/08 00:01:02;;;;;;;4.28;1.60;;;;;;;;;;340924;28;93085;-70
2021/07/08 00:01:15;;;;;;;4.72;1.60;;;;;;;;;;341684;28;70095;-70
2021/07/08 00:01:28;;;;;;;4.72;1.35;;;;;;;;;;341502;28;68903;-69
2021/07/08 00:01:45;;;;;;;4.22;1.40;;;;;;;;;;341654;28;70024;-70
2021/07/08 00:01:57;;;;;;;3.35;1.50;;;;;;;;;;339231;28;138599;-70
2021/07/08 00:02:10;;;;;;;4.65;1.70;;;;;;;;;;341682;28;68522;-70
2021/07/08 00:02:23;;;;;;;5.16;2.12;;;;;;;;;;342190;28;46182;-70
2021/07/08 00:02:35;;;;;;;4.25;2.13;;;;;;;;;;342199;28;46110;-69
2021/07/08 00:02:48;;;;;;;3.65;1.67;;;;;;;;;;341502;28;68449;-69
2021/07/08 00:03:02;;;;;;;4.78;1.55;;;;;;;;;;340689;28;91968;-69
2021/07/08 00:03:15;;;;;;;6.30;1.95;;;;;;;;;;341387;28;70037;-69
2021/07/08 00:03:27;;;;;;;5.93;2.08;;;;;;;;;;342204;28;44732;-69
2021/07/08 00:03:39;;;;;;;4.80;2.00;;;;;;;;;;341431;28;70064;-69
2021/07/08 00:03:54;;;;;;;4.50;1.70;;;;;;;;;;340165;28;114926;-69
2021/07/08 00:04:07;;;;;;;4.32;1.63;;;;;;;;;;342394;28;44801;-69
2021/07/08 00:04:19;;;;;;;4.43;1.88;;;;;;;;;;341427;28;69386;-69
2021/07/08 00:04:32;;;;;;;4.85;2.20;;;;;;;;;;341180;28;45596;-69
2021/07/08 00:04:44;;;;;;;4.63;2.10;;;;;;;;;;341357;28;70176;-69
2021/07/08 00:04:56;;;;;;;3.88;2.03;;;;;;;;;;342118;28;45622;-69
2021/07/08 00:05:10;;;;;;;4.53;2.17;;;;;;;;;;340759;28;46457;-71
2021/07/08 00:05:25;;;;;;;6.15;2.30;;;;;;;;;;338041;28;137668;-70
2021/07/08 00:05:39;;;;;;;4.53;2.10;;;;;;;;;;340147;28;67862;-69
2021/07/08 00:05:53;;;;;;;4.15;2.10;;;;;;;;;;339280;28;93158;-70
2021/07/08 00:06:05;;;;;;;5.30;2.10;;;;;;;;;;339199;28;92691;-69
2021/07/08 00:06:18;;;;;;;5.10;1.88;;;;;;;;;;340030;28;68526;-70
2021/07/08 00:06:31;;;;;;;4.97;1.80;;;;;;;;;;341010;28;45864;-71
2021/07/08 00:06:43;;;;;;;3.67;1.70;;;;;;;;;;341460;28;69390;-69
2021/07/08 00:06:55;;;;;;;3.35;1.60;;;;;;;;;;341438;28;69949;-70
2021/07/08 00:07:09;;;;;;;3.08;1.65;;;;;;;;;;342312;28;46074;-69
2021/07/08 00:07:22;;;;;;;4.75;1.80;;;;;;;;;;340926;28;92068;-69
2021/07/08 00:07:34;;;;;;;5.20;1.88;;;;;;;;;;341437;28;68874;-70
2021/07/08 00:07:46;;;;;;;5.47;1.90;;;;;;;;;;342352;28;45561;-70
2021/07/08 00:08:00;;;;;;;5.32;1.90;;;;;;;;;;341500;28;69636;-70
2021/07/08 00:08:13;;;;;;;5.03;1.77;;;;;;;;;;341661;28;68433;-69
2021/07/08 00:08:25;;;;;;;4.63;1.60;;;;;;;;;;341646;28;70052;-69
2021/07/08 00:08:38;;;;;;;3.80;1.52;;;;;;;;;;342389;28;47141;-69
2021/07/08 00:08:50;;;;;;;3.80;1.60;;;;;;;;;;341414;28;68453;-69
2021/07/08 00:09:06;;;;;;;4.70;1.88;;;;;;;;;;341523;28;70008;-69
2021/07/08 00:09:18;;;;;;;5.30;1.90;;;;;;;;;;340113;28;116133;-69
2021/07/08 00:09:31;;;;;;;4.85;1.80;;;;;;;;;;341656;28;68278;-70
2021/07/08 00:09:43;;;;;;;5.93;1.80;;;;;;;;;;342405;28;45739;-70
2021/07/08 00:09:57;;;;;;;5.25;1.80;;;;;;;;;;342285;28;45414;-69
2021/07/08 00:10:12;;;;;;;4.80;1.80;;;;;;;;;;340135;28;114825;-69
2021/07/08 00:10:28;;;;;;;4.52;1.74;;;;;;;;;;340070;28;116117;-69
2021/07/08 00:10:47;;;;;;;4.72;2.00;;;;;;;;;;339304;28;138558;-69
2021/07/08 00:11:00;;;;;;;5.32;1.75;;;;;;;;;;339151;28;138422;-69
2021/07/08 00:11:12;;;;;;;5.88;1.65;;;;;;;;;;341550;28;69630;-69
2021/07/08 00:11:25;;;;;;;7.57;1.90;;;;;;;;;;342464;28;45525;-69
2021/07/08 00:11:38;;;;;;;6.63;1.65;;;;;;;;;;341347;28;68908;-69
2021/07/08 00:11:50;;;;;;;5.97;1.50;;;;;;;;;;341406;28;68886;-70
2021/07/08 00:12:03;;;;;;;5.68;1.55;;;;;;;;;;342268;28;47007;-69
2021/07/08 00:12:15;;;;;;;5.38;1.60;;;;;;;;;;341538;28;69045;-69
2021/07/08 00:12:27;;;;;;;4.57;1.63;;;;;;;;;;342218;28;46042;-70
2021/07/08 00:12:40;;;;;;;4.70;1.50;;;;;;;;;;342062;28;47040;-70
2021/07/08 00:13:00;;;;;;;4.57;1.60;;;;;;;;;;339195;28;137481;-69
2021/07/08 00:13:13;;;;;;;3.95;1.70;;;;;;;;;;340723;28;91995;-69
2021/07/08 00:13:27;;;;;;;3.72;1.67;;;;;;;;;;341384;28;69312;-69
2021/07/08 00:13:39;;;;;;;3.15;1.60;;;;;;;;;;342194;28;68499;-69
2021/07/08 00:13:52;;;;;;;2.63;1.55;;;;;;;;;;342940;28;67872;-69
2021/07/08 00:14:05;;;;;;;3.00;1.55;;;;;;;;;;341878;28;69277;-69
2021/07/08 00:14:17;;;;;;;3.72;1.58;;;;;;;;;;341318;28;70128;-70
2021/07/08 00:14:30;;;;;;;3.08;1.40;;;;;;;;;;342047;28;46017;-70
2021/07/08 00:14:42;;;;;;;7.94;1.66;;;;;;;;;;342065;28;45382;-70
2021/07/08 00:14:54;;;;;;;8.70;1.90;;;;;;;;;;342165;28;44899;-70
2021/07/08 00:15:08;;;;;;;7.28;2.00;;;;;;;;;;342084;28;45644;-70
2021/07/08 00:15:23;;;;;;;5.07;1.90;;;;;;;;;;340800;28;93223;-69
2021/07/08 00:15:36;;;;;;;4.80;1.70;;;;;;;;;;340016;28;115573;-70
2021/07/08 00:15:48;;;;;;;4.22;1.48;;;;;;;;;;341553;28;67888;-69
2021/07/08 00:16:01;;;;;;;3.97;1.58;;;;;;;;;;342488;28;45436;-69
2021/07/08 00:16:13;;;;;;;3.15;1.50;;;;;;;;;;341690;28;68345;-70
2021/07/08 00:16:26;;;;;;;5.03;1.48;;;;;;;;;;342328;28;46149;-70
2021/07/08 00:16:38;;;;;;;4.68;1.48;;;;;;;;;;341559;28;70240;-70
2021/07/08 00:16:51;;;;;;;2.65;1.40;;;;;;;;;;341579;28;69012;-70
2021/07/08 00:17:06;;;;;;;3.28;1.58;;;;;;;;;;342413;28;46030;-70
2021/07/08 00:17:18;;;;;;;3.53;1.80;;;;;;;;;;339283;28;137901;-68
2021/07/08 00:17:31;;;;;;;3.10;1.80;;;;;;;;;;341585;28;68848;-70
2021/07/08 00:17:43;;;;;;;2.85;1.73;;;;;;;;;;342260;28;47144;-70
2021/07/08 00:17:57;;;;;;;3.00;1.67;;;;;;;;;;341600;28;69581;-70
2021/07/08 00:18:10;;;;;;;3.92;1.60;;;;;;;;;;341519;28;68916;-69
2021/07/08 00:18:23;;;;;;;5.53;1.75;;;;;;;;;;340592;28;91898;-68
2021/07/08 00:18:36;;;;;;;5.03;1.75;;;;;;;;;;341607;28;68467;-70
2021/07/08 00:18:49;;;;;;;4.25;1.50;;;;;;;;;;341685;28;67834;-70
2021/07/08 00:19:01;;;;;;;5.13;1.60;;;;;;;;;;341561;28;68344;-70
2021/07/08 00:19:14;;;;;;;5.57;1.80;;;;;;;;;;341562;28;68931;-69
2021/07/08 00:19:26;;;;;;;5.07;1.85;;;;;;;;;;342420;28;44922;-70
2021/07/08 00:19:38;;;;;;;5.20;1.90;;;;;;;;;;342352;28;47229;-70
2021/07/08 00:19:51;;;;;;;3.83;1.70;;;;;;;;;;341540;28;69016;-69
2021/07/08 00:20:07;;;;;;;3.95;1.55;;;;;;;;;;342378;28;45628;-69
2021/07/08 00:20:20;;;;;;;4.30;1.50;;;;;;;;;;339096;28;137590;-69
2021/07/08 00:20:33;;;;;;;3.58;1.42;;;;;;;;;;341336;28;68175;-70
2021/07/08 00:20:46;;;;;;;3.45;1.48;;;;;;;;;;341423;28;69059;-69
2021/07/08 00:20:58;;;;;;;4.55;1.40;;;;;;;;;;342182;28;45940;-69
2021/07/08 00:21:11;;;;;;;4.20;1.40;;;;;;;;;;341481;28;69706;-69
2021/07/08 00:21:26;;;;;;;3.30;1.50;;;;;;;;;;339074;28;137852;-69
2021/07/08 00:21:39;;;;;;;4.80;1.60;;;;;;;;;;342199;28;46751;-70
2021/07/08 00:21:52;;;;;;;5.55;1.70;;;;;;;;;;340708;28;92052;-69
2021/07/08 00:22:06;;;;;;;4.82;1.65;;;;;;;;;;342205;28;46239;-69
2021/07/08 00:22:18;;;;;;;3.85;1.67;;;;;;;;;;340752;28;91256;-69
2021/07/08 00:22:30;;;;;;;4.45;1.65;;;;;;;;;;342154;28;46112;-69
2021/07/08 00:22:43;;;;;;;5.95;1.80;;;;;;;;;;341390;28;68763;-69
2021/07/08 00:22:55;;;;;;;6.03;1.83;;;;;;;;;;341979;28;47204;-71
2021/07/08 00:23:08;;;;;;;4.50;1.60;;;;;;;;;;340273;28;67858;-70
2021/07/08 00:23:21;;;;;;;3.92;1.38;;;;;;;;;;340746;28;45886;-70
2021/07/08 00:23:33;;;;;;;4.55;1.40;;;;;;;;;;340184;28;69005;-70
2021/07/08 00:23:46;;;;;;;4.53;1.50;;;;;;;;;;340131;28;67763;-70
2021/07/08 00:23:58;;;;;;;4.60;1.70;;;;;;;;;;340940;28;46121;-70
2021/07/08 00:24:10;;;;;;;4.03;1.70;;;;;;;;;;340025;28;67794;-69
2021/07/08 00:24:23;;;;;;;2.95;1.55;;;;;;;;;;340939;28;45948;-70
2021/07/08 00:24:35;;;;;;;5.28;1.60;;;;;;;;;;341279;28;68874;-70
2021/07/08 00:24:47;;;;;;;5.43;1.50;;;;;;;;;;342076;28;45643;-70
2021/07/08 00:25:00;;;;;;;5.32;1.50;;;;;;;;;;342268;28;46639;-69
2021/07/08 00:25:14;;;;;;;4.18;1.52;;;;;;;;;;342467;28;68467;-70
2021/07/08 00:25:27;;;;;;;5.47;1.90;;;;;;;;;;341972;28;92608;-70
2021/07/08 00:25:40;;;;;;;5.93;2.00;;;;;;;;;;341864;28;93433;-70
2021/07/08 00:25:54;;;;;;;5.80;2.13;;;;;;;;;;343582;28;44980;-69
2021/07/08 00:26:06;;;;;;;4.93;1.85;;;;;;;;;;341967;28;92921;-69
2021/07/08 00:26:19;;;;;;;4.32;1.70;;;;;;;;;;343625;28;45501;-69
2021/07/08 00:26:32;;;;;;;3.13;1.70;;;;;;;;;;341893;28;92689;-69
2021/07/08 00:26:47;;;;;;;4.25;1.85;;;;;;;;;;341693;28;70573;-70
2021/07/08 00:26:59;;;;;;;5.35;1.83;;;;;;;;;;340825;28;92593;-69
2021/07/08 00:27:12;;;;;;;3.97;1.73;;;;;;;;;;341411;28;70960;-70
2021/07/08 00:27:24;;;;;;;3.10;1.52;;;;;;;;;;342070;28;45416;-70
2021/07/08 00:27:36;;;;;;;5.90;1.50;;;;;;;;;;341426;28;70321;-69
2021/07/08 00:27:49;;;;;;;7.70;1.67;;;;;;;;;;342249;28;46826;-70
2021/07/08 00:28:01;;;;;;;5.15;1.95;;;;;;;;;;341443;28;68417;-69
2021/07/08 00:28:15;;;;;;;4.50;2.20;;;;;;;;;;342292;28;44806;-70
2021/07/08 00:28:27;;;;;;;3.85;2.00;;;;;;;;;;340637;28;91788;-69
2021/07/08 00:28:40;;;;;;;3.10;1.70;;;;;;;;;;342280;28;45226;-70
2021/07/08 00:28:55;;;;;;;3.33;1.85;;;;;;;;;;339264;28;138915;-69
2021/07/08 00:29:07;;;;;;;3.85;2.10;;;;;;;;;;342393;28;47523;-70
2021/07/08 00:29:19;;;;;;;4.95;2.00;;;;;;;;;;342260;28;46374;-69
2021/07/08 00:29:32;;;;;;;5.40;1.80;;;;;;;;;;341360;28;69018;-70
2021/07/08 00:29:44;;;;;;;5.22;1.65;;;;;;;;;;342297;28;45741;-69
2021/07/08 00:29:56;;;;;;;4.28;1.70;;;;;;;;;;342209;28;45159;-70
2021/07/08 00:30:09;;;;;;;4.32;1.70;;;;;;;;;;338774;28;68752;-70
2021/07/08 00:30:23;;;;;;;4.75;1.65;;;;;;;;;;338048;28;93231;-69
2021/07/08 00:30:35;;;;;;;5.60;1.70;;;;;;;;;;339642;29;45909;-69
2021/07/08 00:30:48;;;;;;;5.95;1.70;;;;;;;;;;338794;29;70137;-70
2021/07/08 00:31:01;;;;;;;5.15;1.63;;;;;;;;;;338803;29;68484;-69
2021/07/08 00:31:13;;;;;;;4.43;1.67;;;;;;;;;;339483;29;47219;-70
2021/07/08 00:31:26;;;;;;;4.22;1.70;;;;;;;;;;338773;29;69619;-69
2021/07/08 00:31:38;;;;;;;3.50;1.75;;;;;;;;;;340127;28;68481;-70
2021/07/08 00:31:50;;;;;;;3.15;1.85;;;;;;;;;;340809;28;46884;-70
2021/07/08 00:32:03;;;;;;;3.20;1.90;;;;;;;;;;340046;28;68355;-70
2021/07/08 00:32:16;;;;;;;4.15;1.77;;;;;;;;;;339676;28;46192;-70
2021/07/08 00:32:29;;;;;;;4.40;1.70;;;;;;;;;;338262;28;92017;-69
2021/07/08 00:32:44;;;;;;;4.05;1.80;;;;;;;;;;339640;28;45362;-69
2021/07/08 00:32:57;;;;;;;3.30;1.85;;;;;;;;;;336611;28;139284;-70
2021/07/08 00:33:10;;;;;;;4.90;1.80;;;;;;;;;;338825;28;67708;-69
2021/07/08 00:33:23;;;;;;;5.25;1.83;;;;;;;;;;338887;28;67862;-69
2021/07/08 00:33:36;;;;;;;4.40;1.85;;;;;;;;;;338861;29;69021;-70
2021/07/08 00:33:48;;;;;;;3.64;1.90;;;;;;;;;;338298;29;46770;-70
2021/07/08 00:34:01;;;;;;;3.40;1.63;;;;;;;;;;338308;29;45523;-70
2021/07/08 00:34:13;;;;;;;2.60;1.50;;;;;;;;;;337629;29;68840;-70
2021/07/08 00:34:26;;;;;;;4.18;1.70;;;;;;;;;;338358;29;45524;-69
2021/07/08 00:34:38;;;;;;;4.60;1.80;;;;;;;;;;338247;29;46781;-70
2021/07/08 00:34:50;;;;;;;5.82;1.85;;;;;;;;;;338338;29;45361;-72
2021/07/08 00:35:03;;;;;;;4.55;1.88;;;;;;;;;;338371;29;44882;-70
2021/07/08 00:35:16;;;;;;;4.00;1.95;;;;;;;;;;336811;29;91819;-71
2021/07/08 00:35:28;;;;;;;3.95;1.92;;;;;;;;;;338338;29;46050;-71
2021/07/08 00:35:41;;;;;;;3.55;1.80;;;;;;;;;;339498;29;45856;-70
2021/07/08 00:35:54;;;;;;;4.13;1.95;;;;;;;;;;337832;29;91243;-69
2021/07/08 00:36:06;;;;;;;5.32;1.85;;;;;;;;;;339441;29;47163;-70
2021/07/08 00:36:18;;;;;;;5.85;1.73;;;;;;;;;;338741;29;69794;-70
2021/07/08 00:36:31;;;;;;;5.95;1.67;;;;;;;;;;339522;29;45337;-70
2021/07/08 00:36:44;;;;;;;5.35;1.65;;;;;;;;;;339624;29;45237;-71
2021/07/08 00:36:56;;;;;;;4.43;1.63;;;;;;;;;;337779;29;92939;-70
2021/07/08 00:37:09;;;;;;;3.67;1.60;;;;;;;;;;339558;29;44955;-70
2021/07/08 00:37:21;;;;;;;3.45;1.67;;;;;;;;;;339590;29;46014;-69
2021/07/08 00:37:33;;;;;;;3.75;1.80;;;;;;;;;;337336;29;68437;-70
2021/07/08 00:37:45;;;;;;;3.22;1.80;;;;;;;;;;338173;29;46777;-70
2021/07/08 00:37:58;;;;;;;3.15;1.90;;;;;;;;;;339178;29;46223;-70
2021/07/08 00:38:10;;;;;;;3.60;1.90;;;;;;;;;;338742;29;68346;-70
2021/07/08 00:38:24;;;;;;;4.05;1.70;;;;;;;;;;338076;29;93197;-70
2021/07/08 00:38:37;;;;;;;4.56;1.72;;;;;;;;;;339553;29;45305;-70
2021/07/08 00:38:49;;;;;;;4.78;1.90;;;;;;;;;;339392;29;45333;-70
2021/07/08 00:39:02;;;;;;;4.45;1.70;;;;;;;;;;339580;29;44967;-70
2021/07/08 00:39:14;;;;;;;4.53;1.67;;;;;;;;;;338111;29;91933;-70
2021/07/08 00:39:27;;;;;;;4.05;1.60;;;;;;;;;;339507;29;47161;-69
2021/07/08 00:39:39;;;;;;;3.85;1.73;;;;;;;;;;338898;28;67852;-71
2021/07/08 00:39:52;;;;;;;4.63;2.00;;;;;;;;;;339535;28;47231;-70
2021/07/08 00:40:05;;;;;;;5.47;2.08;;;;;;;;;;339700;28;47174;-70
2021/07/08 00:40:17;;;;;;;4.38;1.75;;;;;;;;;;338834;28;69571;-69
2021/07/08 00:40:30;;;;;;;4.57;1.73;;;;;;;;;;338972;28;69012;-70
2021/07/08 00:40:42;;;;;;;5.75;1.80;;;;;;;;;;338755;28;68443;-70
2021/07/08 00:40:55;;;;;;;5.45;1.88;;;;;;;;;;339739;28;47374;-70
2021/07/08 00:41:07;;;;;;;4.70;2.00;;;;;;;;;;339775;28;45358;-70
2021/07/08 00:41:19;;;;;;;2.88;1.88;;;;;;;;;;338848;28;69364;-70
2021/07/08 00:41:31;;;;;;;3.03;1.80;;;;;;;;;;339647;28;45471;-69
2021/07/08 00:41:44;;;;;;;3.65;1.70;;;;;;;;;;339576;28;45999;-70
2021/07/08 00:41:56;;;;;;;4.68;1.67;;;;;;;;;;338892;28;68940;-70
2021/07/08 00:42:08;;;;;;;4.20;1.70;;;;;;;;;;339708;28;46190;-70
2021/07/08 00:42:21;;;;;;;4.60;1.75;;;;;;;;;;338867;28;69938;-70
2021/07/08 00:42:33;;;;;;;5.20;2.00;;;;;;;;;;339583;28;45358;-70
2021/07/08 00:42:45;;;;;;;5.90;2.03;;;;;;;;;;339642;28;46789;-70
2021/07/08 00:42:59;;;;;;;5.05;1.90;;;;;;;;;;337981;28;92000;-70
2021/07/08 00:43:12;;;;;;;3.72;1.80;;;;;;;;;;338848;28;70036;-70
2021/07/08 00:43:28;;;;;;;2.88;1.80;;;;;;;;;;338895;28;67552;-70
2021/07/08 00:43:41;;;;;;;3.40;1.80;;;;;;;;;;336529;28;138988;-70
2021/07/08 00:43:56;;;;;;;3.78;1.75;;;;;;;;;;336445;29;137065;-69
2021/07/08 00:44:09;;;;;;;4.15;1.80;;;;;;;;;;339396;29;46478;-70
2021/07/08 00:44:21;;;;;;;3.58;1.80;;;;;;;;;;339385;29;46117;-69
2021/07/08 00:44:33;;;;;;;3.90;1.80;;;;;;;;;;339376;29;47083;-71
2021/07/08 00:44:46;;;;;;;4.85;1.70;;;;;;;;;;339648;29;47045;-70
2021/07/08 00:44:58;;;;;;;4.60;1.63;;;;;;;;;;338753;29;70057;-70
2021/07/08 00:45:12;;;;;;;3.50;1.60;;;;;;;;;;339678;29;44792;-70
2021/07/08 00:45:25;;;;;;;3.65;1.65;;;;;;;;;;337180;29;114610;-70
2021/07/08 00:45:37;;;;;;;4.03;1.77;;;;;;;;;;339457;29;45548;-70
2021/07/08 00:45:50;;;;;;;4.45;1.90;;;;;;;;;;338728;29;68988;-70
2021/07/08 00:46:03;;;;;;;4.35;1.80;;;;;;;;;;339614;29;45414;-70
2021/07/08 00:46:15;;;;;;;3.85;1.65;;;;;;;;;;337828;29;93194;-70
2021/07/08 00:46:28;;;;;;;3.58;1.70;;;;;;;;;;339540;29;46394;-70
2021/07/08 00:46:41;;;;;;;3.70;1.98;;;;;;;;;;339607;29;45267;-70
2021/07/08 00:46:53;;;;;;;3.60;2.10;;;;;;;;;;336761;29;92030;-70
2021/07/08 00:47:06;;;;;;;4.57;2.10;;;;;;;;;;338287;29;44975;-70
2021/07/08 00:47:18;;;;;;;5.55;1.85;;;;;;;;;;337640;29;67931;-69
2021/07/08 00:47:31;;;;;;;5.50;1.85;;;;;;;;;;338352;29;45701;-70
2021/07/08 00:47:43;;;;;;;4.25;1.85;;;;;;;;;;337618;29;68537;-70
2021/07/08 00:47:56;;;;;;;3.72;2.00;;;;;;;;;;338378;29;44850;-70
2021/07/08 00:48:08;;;;;;;3.03;1.90;;;;;;;;;;338644;29;69635;-70
2021/07/08 00:48:20;;;;;;;2.90;1.58;;;;;;;;;;339605;29;47211;-70
2021/07/08 00:48:33;;;;;;;5.45;1.70;;;;;;;;;;339616;29;45269;-70
2021/07/08 00:48:45;;;;;;;6.15;1.60;;;;;;;;;;338795;29;70109;-70
2021/07/08 00:48:57;;;;;;;3.35;1.60;;;;;;;;;;339606;29;46083;-70
2021/07/08 00:49:10;;;;;;;3.05;1.77;;;;;;;;;;338759;28;69933;-71
2021/07/08 00:49:23;;;;;;;4.43;1.88;;;;;;;;;;339094;28;69940;-70
2021/07/08 00:49:35;;;;;;;4.82;1.95;;;;;;;;;;339759;28;45362;-69
2021/07/08 00:49:49;;;;;;;5.60;2.13;;;;;;;;;;338840;28;68912;-70
2021/07/08 00:50:03;;;;;;;8.23;2.20;;;;;;;;;;338038;28;93033;-70
2021/07/08 00:50:17;;;;;;;8.15;2.10;;;;;;;;;;338058;28;91728;-70
2021/07/08 00:50:31;;;;;;;4.55;1.85;;;;;;;;;;338077;28;93146;-70
2021/07/08 00:50:46;;;;;;;3.83;1.83;;;;;;;;;;338117;29;91909;-70
2021/07/08 00:50:58;;;;;;;4.40;1.95;;;;;;;;;;337015;29;114693;-70
2021/07/08 00:51:11;;;;;;;5.13;1.98;;;;;;;;;;339580;29;45215;-70
2021/07/08 00:51:23;;;;;;;8.63;2.00;;;;;;;;;;338638;29;69936;-68
2021/07/08 00:51:35;;;;;;;8.45;1.92;;;;;;;;;;339412;29;47101;-71
2021/07/08 00:51:48;;;;;;;4.63;1.90;;;;;;;;;;338720;29;67849;-70
2021/07/08 00:52:00;;;;;;;4.22;1.92;;;;;;;;;;339545;29;47133;-70
2021/07/08 00:52:12;;;;;;;4.03;1.90;;;;;;;;;;339549;29;45479;-70
2021/07/08 00:52:24;;;;;;;4.26;1.88;;;;;;;;;;339608;29;45974;-70
2021/07/08 00:52:37;;;;;;;3.13;1.60;;;;;;;;;;339505;29;46496;-70
2021/07/08 00:52:49;;;;;;;3.38;1.65;;;;;;;;;;339429;28;45655;-70
2021/07/08 00:53:03;;;;;;;3.90;1.70;;;;;;;;;;338926;28;69623;-70
2021/07/08 00:53:17;;;;;;;4.60;1.80;;;;;;;;;;338999;28;68808;-70
2021/07/08 00:53:29;;;;;;;4.13;1.63;;;;;;;;;;338236;28;92035;-70
2021/07/08 00:53:42;;;;;;;4.40;1.60;;;;;;;;;;338698;28;69956;-70
2021/07/08 00:53:55;;;;;;;5.47;1.63;;;;;;;;;;338834;28;70013;-70
2021/07/08 00:54:08;;;;;;;4.76;1.70;;;;;;;;;;339816;28;47150;-70
2021/07/08 00:54:20;;;;;;;6.03;1.80;;;;;;;;;;338859;28;67827;-70
2021/07/08 00:54:32;;;;;;;6.80;1.90;;;;;;;;;;339669;28;46006;-70
2021/07/08 00:54:45;;;;;;;5.07;1.90;;;;;;;;;;339746;28;46191;-70
2021/07/08 00:54:57;;;;;;;3.92;1.90;;;;;;;;;;338993;28;68847;-70
2021/07/08 00:55:10;;;;;;;2.42;1.73;;;;;;;;;;339585;28;47294;-70
2021/07/08 00:55:23;;;;;;;3.33;1.70;;;;;;;;;;338077;28;91834;-70
2021/07/08 00:55:35;;;;;;;3.95;1.70;;;;;;;;;;339620;28;45250;-69
2021/07/08 00:55:58;;;;;;;3.85;1.70;;;;;;;;;;338874;28;69585;-70
2021/07/08 00:56:11;;;;;;;3.47;1.67;;;;;;;;;;335832;28;160332;-70
2021/07/08 00:56:25;;;;;;;3.88;1.83;;;;;;;;;;338012;29;91816;-70
2021/07/08 00:56:37;;;;;;;4.20;1.77;;;;;;;;;;338920;29;67719;-69
2021/07/08 00:56:49;;;;;;;6.63;1.75;;;;;;;;;;338733;29;69943;-70
2021/07/08 00:57:02;;;;;;;7.28;1.58;;;;;;;;;;339423;29;47161;-70
2021/07/08 00:57:15;;;;;;;7.45;1.67;;;;;;;;;;338832;29;68329;-70
2021/07/08 00:57:27;;;;;;;6.08;1.84;;;;;;;;;;339490;29;46437;-70
2021/07/08 00:57:40;;;;;;;4.53;1.90;;;;;;;;;;339594;29;44760;-70
2021/07/08 00:57:53;;;;;;;4.15;1.80;;;;;;;;;;338098;29;91672;-70
2021/07/08 00:58:07;;;;;;;3.95;1.67;;;;;;;;;;339526;29;46082;-69
2021/07/08 00:58:19;;;;;;;4.53;1.70;;;;;;;;;;337868;29;93072;-69
2021/07/08 00:58:32;;;;;;;5.05;1.80;;;;;;;;;;339464;29;44914;-71
2021/07/08 00:59:03;;;;;;;5.43;1.80;;;;;;;;;;339040;28;69903;-70
2021/07/08 00:59:16;;;;;;;4.28;1.80;;;;;;;;;;336301;29;137021;-68
2021/07/08 00:59:28;;;;;;;4.75;1.92;;;;;;;;;;339521;29;45968;-69
2021/07/08 00:59:41;;;;;;;4.47;1.98;;;;;;;;;;338886;29;70392;-69
2021/07/08 00:59:54;;;;;;;4.65;1.98;;;;;;;;;;339382;28;93114;-69
2021/07/08 01:00:07;;;;;;;4.90;1.90;;;;;;;;;;340764;28;44852;-69
2021/07/08 01:00:24;;;;;;;4.32;1.90;;;;;;;;;;339998;28;68501;-68
2021/07/08 01:00:37;;;;;;;3.83;2.00;;;;;;;;;;337567;28;138592;-69
2021/07/08 01:00:50;;;;;;;3.28;1.77;;;;;;;;;;340154;28;68408;-69
2021/07/08 01:01:03;;;;;;;3.55;1.85;;;;;;;;;;340001;28;68997;-68
2021/07/08 01:01:16;;;;;;;4.14;1.90;;;;;;;;;;339840;28;93036;-68
2021/07/08 01:01:28;;;;;;;4.15;1.90;;;;;;;;;;342217;28;44765;-69
2021/07/08 01:01:41;;;;;;;4.50;1.80;;;;;;;;;;342147;28;47103;-69
2021/07/08 01:01:54;;;;;;;4.80;1.73;;;;;;;;;;340319;28;70121;-69
2021/07/08 01:02:06;;;;;;;4.63;1.80;;;;;;;;;;338785;28;68470;-68
2021/07/08 01:02:19;;;;;;;3.45;1.60;;;;;;;;;;338864;28;70184;-70
2021/07/08 01:02:32;;;;;;;4.07;1.77;;;;;;;;;;338869;28;68821;-69
2021/07/08 01:02:44;;;;;;;4.28;1.90;;;;;;;;;;339601;28;46475;-68
2021/07/08 01:02:58;;;;;;;3.90;1.80;;;;;;;;;;338845;28;67914;-68
2021/07/08 01:03:12;;;;;;;4.28;1.60;;;;;;;;;;338100;28;91668;-69
2021/07/08 01:03:25;;;;;;;4.85;1.80;;;;;;;;;;337854;28;92982;-70
2021/07/08 01:03:38;;;;;;;5.35;2.00;;;;;;;;;;338766;28;68271;-68
2021/07/08 01:03:50;;;;;;;4.93;2.05;;;;;;;;;;339592;29;46564;-69
2021/07/08 01:04:02;;;;;;;6.63;2.10;;;;;;;;;;338723;29;70336;-69
2021/07/08 01:04:15;;;;;;;6.85;2.00;;;;;;;;;;339511;29;46494;-69
2021/07/08 01:04:28;;;;;;;6.63;1.98;;;;;;;;;;338841;29;68959;-68
2021/07/08 01:04:41;;;;;;;6.32;2.08;;;;;;;;;;337483;29;69910;-69
2021/07/08 01:04:54;;;;;;;5.90;1.90;;;;;;;;;;335322;29;91100;-68
2021/07/08 01:05:06;;;;;;;6.63;1.80;;;;;;;;;;336769;29;46066;-69
2021/07/08 01:05:19;;;;;;;7.18;1.80;;;;;;;;;;334895;29;68518;-68
2021/07/08 01:05:32;;;;;;;6.63;1.80;;;;;;;;;;336159;29;70605;-69
2021/07/08 01:05:47;;;;;;;8.00;2.00;;;;;;;;;;336301;29;68873;-68
2021/07/08 01:05:59;;;;;;;5.90;1.92;;;;;;;;;;335255;29;92617;-68
2021/07/08 01:06:18;;;;;;;4.63;1.95;;;;;;;;;;336156;29;67649;-69
2021/07/08 01:06:31;;;;;;;3.70;2.00;;;;;;;;;;333808;29;138759;-68
2021/07/08 01:06:44;;;;;;;5.35;2.05;;;;;;;;;;337053;29;70082;-69
2021/07/08 01:06:57;;;;;;;5.45;2.00;;;;;;;;;;338264;29;70181;-68
2021/07/08 01:07:13;;;;;;;4.50;2.10;;;;;;;;;;338582;29;70163;-69
2021/07/08 01:07:26;;;;;;;5.00;2.03;;;;;;;;;;336655;28;138916;-68
2021/07/08 01:07:38;;;;;;;5.15;2.10;;;;;;;;;;338900;28;68127;-68
2021/07/08 01:07:51;;;;;;;4.95;2.30;;;;;;;;;;339458;28;47107;-68
2021/07/08 01:08:04;;;;;;;5.72;2.35;;;;;;;;;;339027;28;68876;-68
2021/07/08 01:08:16;;;;;;;6.32;2.15;;;;;;;;;;338923;28;69631;-69
2021/07/08 01:08:30;;;;;;;4.65;2.08;;;;;;;;;;338874;28;69733;-69
2021/07/08 01:08:42;;;;;;;4.53;2.08;;;;;;;;;;338702;28;70265;-70
2021/07/08 01:08:54;;;;;;;5.00;2.00;;;;;;;;;;339569;28;47246;-69
2021/07/08 01:09:07;;;;;;;3.90;2.00;;;;;;;;;;338870;28;69931;-68
2021/07/08 01:09:19;;;;;;;3.63;1.90;;;;;;;;;;339659;28;46009;-69
2021/07/08 01:09:31;;;;;;;5.18;2.22;;;;;;;;;;338756;28;68418;-68
2021/07/08 01:09:44;;;;;;;5.32;2.40;;;;;;;;;;339618;28;46095;-70
2021/07/08 01:09:56;;;;;;;4.50;2.22;;;;;;;;;;339665;28;47209;-68
2021/07/08 01:10:09;;;;;;;5.20;2.10;;;;;;;;;;338865;28;68558;-68
2021/07/08 01:10:21;;;;;;;5.78;2.10;;;;;;;;;;338907;28;70544;-68
2021/07/08 01:10:33;;;;;;;5.40;2.10;;;;;;;;;;339432;28;46367;-68
2021/07/08 01:10:47;;;;;;;3.75;1.90;;;;;;;;;;338791;29;68296;-70
2021/07/08 01:10:59;;;;;;;4.20;1.90;;;;;;;;;;338768;29;69942;-69
2021/07/08 01:11:13;;;;;;;5.53;1.90;;;;;;;;;;339602;29;46602;-71
2021/07/08 01:11:25;;;;;;;7.88;2.03;;;;;;;;;;337807;29;91326;-69
2021/07/08 01:11:37;;;;;;;7.82;2.00;;;;;;;;;;338772;29;70463;-69
2021/07/08 01:11:50;;;;;;;6.72;2.00;;;;;;;;;;339541;29;46507;-69
2021/07/08 01:12:02;;;;;;;5.53;2.05;;;;;;;;;;339552;29;44898;-69
2021/07/08 01:12:14;;;;;;;4.22;2.10;;;;;;;;;;338593;29;70099;-69
2021/07/08 01:12:27;;;;;;;4.63;2.10;;;;;;;;;;339355;29;46018;-68
2021/07/08 01:12:39;;;;;;;3.63;2.00;;;;;;;;;;339352;29;44855;-68
2021/07/08 01:12:55;;;;;;;4.30;1.90;;;;;;;;;;336680;29;138045;-69
2021/07/08 01:13:07;;;;;;;4.90;2.00;;;;;;;;;;338651;29;70356;-69
2021/07/08 01:13:20;;;;;;;5.93;1.90;;;;;;;;;;339226;29;45854;-68
2021/07/08 01:13:33;;;;;;;5.95;1.80;;;;;;;;;;337946;29;91350;-68
2021/07/08 01:13:45;;;;;;;6.13;1.83;;;;;;;;;;339442;29;47049;-68
2021/07/08 01:13:58;;;;;;;6.22;1.90;;;;;;;;;;338780;29;68659;-68
2021/07/08 01:14:10;;;;;;;5.72;1.90;;;;;;;;;;339571;29;44913;-68
2021/07/08 01:14:22;;;;;;;5.32;1.90;;;;;;;;;;338406;29;69125;-68
2021/07/08 01:14:35;;;;;;;4.85;1.80;;;;;;;;;;339363;29;47173;-68
2021/07/08 01:14:48;;;;;;;4.30;1.80;;;;;;;;;;338604;29;69917;-68
2021/07/08 01:15:00;;;;;;;4.90;1.92;;;;;;;;;;339720;28;45408;-69
2021/07/08 01:15:13;;;;;;;5.00;1.92;;;;;;;;;;338589;29;68510;-69
2021/07/08 01:15:25;;;;;;;3.63;1.70;;;;;;;;;;339606;29;45252;-69
2021/07/08 01:15:37;;;;;;;3.03;1.80;;;;;;;;;;338682;29;68894;-68
2021/07/08 01:15:50;;;;;;;4.78;2.00;;;;;;;;;;339511;29;46538;-69
2021/07/08 01:16:03;;;;;;;5.60;1.92;;;;;;;;;;338667;29;70121;-68
2021/07/08 01:16:18;;;;;;;5.18;2.00;;;;;;;;;;337260;29;114650;-69
2021/07/08 01:16:31;;;;;;;6.57;2.00;;;;;;;;;;338841;29;68953;-68
2021/07/08 01:16:43;;;;;;;6.47;1.83;;;;;;;;;;338661;29;68905;-69
2021/07/08 01:16:55;;;;;;;5.44;1.82;;;;;;;;;;339532;29;45978;-68
2021/07/08 01:17:09;;;;;;;4.55;1.90;;;;;;;;;;339520;29;44903;-69
2021/07/08 01:17:22;;;;;;;4.70;1.90;;;;;;;;;;338529;29;69009;-68
2021/07/08 01:17:35;;;;;;;5.05;1.88;;;;;;;;;;337939;29;91082;-68
2021/07/08 01:17:48;;;;;;;4.78;1.88;;;;;;;;;;339428;29;45713;-68
2021/07/08 01:18:00;;;;;;;4.25;1.92;;;;;;;;;;338633;29;70070;-68
2021/07/08 01:18:13;;;;;;;4.75;1.75;;;;;;;;;;338752;29;68824;-69
2021/07/08 01:18:25;;;;;;;4.03;1.67;;;;;;;;;;339476;29;47314;-69
2021/07/08 01:18:38;;;;;;;4.40;1.90;;;;;;;;;;338756;29;70056;-68
2021/07/08 01:18:50;;;;;;;4.75;2.00;;;;;;;;;;338679;29;69898;-68